Flight Track Log - Related Links

Times and Time Zones

All times are in EDT time to prevent confusion due to time zone crossing. See the EGF4058 flight status page for this flight to view local times or setup timezone preferences in your user account.

Time Position Orientation Groundspeed Altitude Reporting Facility
EDT Latitude Longitude Course Direction KTS MPH feet Rate Location/Type
Tue 03:17:25 PM 40.0106 -88.3444 337° Northwest 205 236 4,000  Level Chicago Center
Tue 03:18:00 PM 40.2517 -88.3910 335° Northwest  Level FlightAware Approximate
Tue 03:18:27 PM 40.0789 -88.3772 340° North 225 259 6,700  Level Chicago Center
Tue 03:19:00 PM 40.3243 -88.4303 346° North  Level FlightAware Approximate
Tue 03:19:29 PM 40.1431 -88.4111 338° Northwest 238 274 8,800  Level Chicago Center
Tue 03:20:00 PM 40.3945 -88.4792 330° Northwest  Level FlightAware Approximate
Tue 03:20:31 PM 40.2092 -88.4439 339° North 251 289 10,700  Level Chicago Center
Tue 03:21:00 PM 40.4680 -88.5198 337° Northwest  Level FlightAware Approximate
Tue 03:21:33 PM 40.2817 -88.4775 341° North 267 307 12,200  Level Chicago Center
Tue 03:22:00 PM 40.5415 -88.5618 337° Northwest  Level FlightAware Approximate
Tue 03:22:35 PM 40.3639 -88.5156 341° North 300 345 13,400  Level Chicago Center
Tue 03:23:37 PM 40.4675 -88.5647 340° North 327 376 14,100 288 Climbing Chicago Center
Tue 03:24:40 PM 40.5628 -88.6108 340° North 354 407 14,000 -48 Descending Chicago Center
Tue 03:25:42 PM 40.6608 -88.6569 340° North 369 425 14,000  Level Chicago Center
Tue 03:26:44 PM 40.7594 -88.7017 341° North 374 430 14,000  Level Chicago Center
Tue 03:27:46 PM 40.8611 -88.7267 349° North 382 440 14,000  Level Chicago Center
Tue 03:28:48 PM 40.9686 -88.7108 North 386 444 14,000  Level Chicago Center
Tue 03:29:51 PM 41.0953 -88.6892 North 386 444 14,000 -145 Level Chicago Center
Tue 03:30:52 PM 41.2017 -88.6758 North 384 442 13,700 -585 Descending Chicago Center
Tue 03:31:54 PM 41.3000 -88.6606 North 362 417 12,800 -919 Descending Chicago Center
Tue 03:32:56 PM 41.3961 -88.6453 North 351 404 11,800 -823 Descending Chicago Center
Tue 03:33:58 PM 41.4914 -88.6278 North 345 397 11,100 -384 Descending Chicago Center
Tue 03:35:01 PM 41.5778 -88.5175 44° Northeast 357 411 11,000 -336 Descending Chicago Center
Tue 03:36:03 PM 41.6439 -88.4172 49° Northeast 358 412 10,400 -484 Descending Chicago Center
Tue 03:37:05 PM 41.7092 -88.3192 48° Northeast 354 407 10,000 -194 Descending Chicago Center
Tue 03:38:07 PM 41.7739 -88.2222 48° Northeast 351 404 10,000 -581 Level Chicago Center
Tue 03:39:09 PM 41.8308 -88.1336 49° Northeast 324 373 8,800 -1,161 Descending Chicago Center
Tue 03:40:11 PM 41.8678 -88.0325 64° Northeast 311 358 7,600 -893 Descending Chicago Center
Tue 03:41:10 PM 41.9000 -87.9167 69° East 262 302 7,000 -303 Descending Chicago TRACON
Tue 03:42:10 PM 41.9000 -87.8333 90° East 257 296 7,000 -656 Level Chicago TRACON
Tue 03:43:18 PM 41.8944 -87.7325 94° East 252 290 5,600 -1,431 Descending Chicago Center
Tue 03:44:20 PM 41.9428 -87.7178 13° North 216 249 3,900 -1,645 Descending Chicago Center

Login

Don't have an account? Register now (free) for customized features, flight alerts, and more!